createdAt,value
2019-05-15T00:05:05.136Z,22.7
2019-05-15T00:20:04.854Z,22.6
2019-05-15T00:35:02.740Z,22.6
2019-05-15T00:50:04.339Z,22.6
2019-05-15T01:05:03.345Z,22.5
2019-05-15T01:20:04.672Z,22.5
2019-05-15T01:35:05.686Z,22.5
2019-05-15T01:50:05.164Z,22.5
2019-05-15T02:05:03.292Z,22.5
2019-05-15T02:20:03.583Z,22.5
2019-05-15T02:35:04.247Z,22.5
2019-05-15T02:50:05.167Z,22.5
2019-05-15T03:05:03.604Z,22.5
2019-05-15T03:20:09.906Z,22.6
2019-05-15T03:35:05.235Z,22.6
2019-05-15T03:50:03.441Z,22.6
2019-05-15T04:05:03.932Z,22.6
2019-05-15T04:20:03.269Z,22.6
2019-05-15T04:35:04.395Z,22.6
2019-05-15T04:50:04.897Z,22.7
2019-05-15T05:05:03.801Z,22.7
2019-05-15T05:20:03.216Z,22.7
2019-05-15T05:35:03.791Z,22.7
2019-05-15T05:50:05.249Z,22.8
2019-05-15T06:05:07.879Z,22.9
2019-05-15T06:20:04.107Z,23
2019-05-15T06:35:04.216Z,23.3
2019-05-15T06:50:04.147Z,23.3
2019-05-15T07:05:03.696Z,23.5
2019-05-15T07:20:12.862Z,23.6
2019-05-15T07:35:04.181Z,23.7
2019-05-15T07:50:04.932Z,23.8
2019-05-15T08:05:03.665Z,24
2019-05-15T08:20:05.056Z,24
2019-05-15T08:35:03.882Z,24.2
2019-05-15T08:50:03.033Z,24.3
2019-05-15T09:05:03.732Z,24.3
2019-05-15T09:20:08.074Z,24.5
2019-05-15T09:35:04.556Z,24.6
2019-05-15T09:50:08.450Z,24.7
2019-05-15T10:05:07.199Z,24.8
2019-05-15T10:20:05.639Z,24.9
2019-05-15T10:35:24.345Z,25
2019-05-15T10:50:04.978Z,25.1
2019-05-15T11:05:03.801Z,25.1
2019-05-15T11:20:04.269Z,25.2
2019-05-15T11:35:04.721Z,25.2
2019-05-15T11:50:10.245Z,25.3
2019-05-15T12:05:09.326Z,25.3
2019-05-15T12:20:06.528Z,25.4
2019-05-15T12:35:03.747Z,25.4
2019-05-15T13:05:03.388Z,25.4
2019-05-15T13:20:05.070Z,25.4
2019-05-15T13:35:04.713Z,25.4
2019-05-15T13:50:07.891Z,25.3
2019-05-15T14:05:04.105Z,25.3
2019-05-15T14:20:03.149Z,25.3
2019-05-15T14:35:03.332Z,25.3
2019-05-15T14:50:09.823Z,25.2
2019-05-15T15:05:04.466Z,25.2
2019-05-15T15:20:06.501Z,25.1
2019-05-15T15:35:08.400Z,25.1
2019-05-15T15:50:08.878Z,25.1
2019-05-15T16:05:05.536Z,25
2019-05-15T16:20:03.948Z,24.9
2019-05-15T16:35:04.897Z,24.8
2019-05-15T16:50:03.264Z,24.5
2019-05-15T17:05:05.711Z,24.3
2019-05-15T17:20:09.684Z,24.1
2019-05-15T17:35:05.231Z,24
2019-05-15T17:50:04.308Z,23.9
2019-05-15T18:05:04.324Z,23.8
2019-05-15T18:20:05.416Z,23.7
2019-05-15T18:35:08.123Z,23.6
2019-05-15T18:50:12.556Z,23.5
2019-05-15T19:05:04.338Z,23.5
2019-05-15T19:20:07.993Z,23.4
2019-05-15T19:35:07.614Z,23.4
2019-05-15T19:50:08.430Z,23.3
2019-05-15T20:05:09.074Z,23.3
2019-05-15T20:20:04.250Z,23.2
2019-05-15T20:35:04.684Z,23.2
2019-05-15T20:50:08.442Z,23.2
2019-05-15T21:05:08.667Z,23.2
2019-05-15T21:20:04.028Z,23.1
2019-05-15T21:35:03.794Z,23.1
2019-05-15T21:50:08.022Z,23.1
2019-05-15T22:05:04.214Z,23.1
2019-05-15T22:20:04.507Z,23.1
2019-05-15T22:35:09.037Z,23.1
2019-05-15T22:50:08.758Z,23.1
2019-05-15T23:05:03.822Z,23
2019-05-15T23:20:03.408Z,23
2019-05-15T23:35:03.541Z,23
2019-05-15T23:50:04.870Z,22.9
